sensor_id;sensor_type;location;lat;lon;timestamp;pressure;altitude;pressure_sealevel;temperature;humidity
59367;BME280;45163;47.690;11.770;2023-02-23T00:00:30;92929.50;;;2.79;100.00
59367;BME280;45163;47.690;11.770;2023-02-23T00:02:59;92921.50;;;2.72;100.00
59367;BME280;45163;47.690;11.770;2023-02-23T00:05:28;92925.28;;;2.78;100.00
59367;BME280;45163;47.690;11.770;2023-02-23T00:07:55;92926.81;;;2.79;100.00
59367;BME280;45163;47.690;11.770;2023-02-23T00:10:22;92940.72;;;2.74;100.00
59367;BME280;45163;47.690;11.770;2023-02-23T00:12:56;92934.16;;;2.75;100.00
59367;BME280;45163;47.690;11.770;2023-02-23T00:15:23;92931.78;;;2.84;100.00
59367;BME280;45163;47.690;11.770;2023-02-23T00:17:53;92938.28;;;2.97;100.00
59367;BME280;45163;47.690;11.770;2023-02-23T00:20:20;92934.38;;;3.06;100.00
59367;BME280;45163;47.690;11.770;2023-02-23T00:22:57;92932.88;;;2.97;100.00
59367;BME280;45163;47.690;11.770;2023-02-23T00:25:24;92929.81;;;2.95;100.00
59367;BME280;45163;47.690;11.770;2023-02-23T00:27:50;92929.44;;;2.97;100.00
59367;BME280;45163;47.690;11.770;2023-02-23T00:30:18;92927.06;;;3.06;100.00
59367;BME280;45163;47.690;11.770;2023-02-23T00:32:44;92927.81;;;3.07;100.00
59367;BME280;45163;47.690;11.770;2023-02-23T00:35:11;92930.88;;;3.05;100.00
59367;BME280;45163;47.690;11.770;2023-02-23T00:37:45;92936.25;;;3.09;100.00
59367;BME280;45163;47.690;11.770;2023-02-23T00:40:15;92930.47;;;3.14;100.00
59367;BME280;45163;47.690;11.770;2023-02-23T00:42:43;92929.25;;;3.22;100.00
59367;BME280;45163;47.690;11.770;2023-02-23T00:45:13;92931.97;;;3.18;100.00
59367;BME280;45163;47.690;11.770;2023-02-23T00:47:41;92934.31;;;3.09;100.00
59367;BME280;45163;47.690;11.770;2023-02-23T00:50:09;92932.06;;;3.00;100.00
59367;BME280;45163;47.690;11.770;2023-02-23T00:52:41;92938.66;;;2.96;100.00
59367;BME280;45163;47.690;11.770;2023-02-23T00:55:12;92932.50;;;2.95;100.00
59367;BME280;45163;47.690;11.770;2023-02-23T00:57:39;92941.75;;;2.94;100.00
59367;BME280;45163;47.690;11.770;2023-02-23T01:00:08;92929.06;;;2.88;100.00
59367;BME280;45163;47.690;11.770;2023-02-23T01:02:48;92939.84;;;2.88;100.00
59367;BME280;45163;47.690;11.770;2023-02-23T01:05:14;92936.06;;;2.82;100.00
59367;BME280;45163;47.690;11.770;2023-02-23T01:07:41;92931.03;;;2.84;100.00
59367;BME280;45163;47.690;11.770;2023-02-23T01:10:11;92936.03;;;2.85;100.00
59367;BME280;45163;47.690;11.770;2023-02-23T01:12:48;92937.25;;;2.73;100.00
59367;BME280;45163;47.690;11.770;2023-02-23T01:15:15;92936.84;;;2.79;100.00
59367;BME280;45163;47.690;11.770;2023-02-23T01:17:42;92939.16;;;2.77;100.00
59367;BME280;45163;47.690;11.770;2023-02-23T01:20:10;92934.47;;;2.84;100.00
59367;BME280;45163;47.690;11.770;2023-02-23T01:22:45;92936.38;;;2.91;100.00
59367;BME280;45163;47.690;11.770;2023-02-23T01:25:13;92936.38;;;2.91;100.00
59367;BME280;45163;47.690;11.770;2023-02-23T01:27:40;92932.50;;;2.92;100.00
59367;BME280;45163;47.690;11.770;2023-02-23T01:30:07;92937.94;;;2.88;100.00
59367;BME280;45163;47.690;11.770;2023-02-23T01:32:35;92934.47;;;2.88;100.00
59367;BME280;45163;47.690;11.770;2023-02-23T01:35:07;92940.59;;;2.92;100.00
59367;BME280;45163;47.690;11.770;2023-02-23T01:37:38;92933.69;;;2.91;100.00
59367;BME280;45163;47.690;11.770;2023-02-23T01:40:09;92935.22;;;2.92;100.00
59367;BME280;45163;47.690;11.770;2023-02-23T01:42:39;92934.03;;;2.96;100.00
59367;BME280;45163;47.690;11.770;2023-02-23T01:47:41;92932.88;;;3.01;100.00
59367;BME280;45163;47.690;11.770;2023-02-23T01:50:08;92920.53;;;2.96;100.00
59367;BME280;45163;47.690;11.770;2023-02-23T01:52:37;92928.25;;;2.98;100.00
59367;BME280;45163;47.690;11.770;2023-02-23T01:55:04;92922.88;;;2.98;100.00
59367;BME280;45163;47.690;11.770;2023-02-23T01:57:31;92922.13;;;2.90;100.00
59367;BME280;45163;47.690;11.770;2023-02-23T01:59:57;92924.84;;;2.90;100.00
59367;BME280;45163;47.690;11.770;2023-02-23T02:02:25;92920.63;;;2.89;100.00
59367;BME280;45163;47.690;11.770;2023-02-23T02:04:59;92917.56;;;2.84;100.00
59367;BME280;45163;47.690;11.770;2023-02-23T02:07:28;92913.72;;;2.85;100.00
59367;BME280;45163;47.690;11.770;2023-02-23T02:09:56;92916.00;;;2.86;100.00
59367;BME280;45163;47.690;11.770;2023-02-23T02:12:39;92915.63;;;2.84;100.00
59367;BME280;45163;47.690;11.770;2023-02-23T02:15:07;92922.63;;;2.74;100.00
59367;BME280;45163;47.690;11.770;2023-02-23T02:36:36;92901.72;;;2.93;100.00
59367;BME280;45163;47.690;11.770;2023-02-23T02:39:20;92902.09;;;2.95;100.00
59367;BME280;45163;47.690;11.770;2023-02-23T02:47:32;92912.00;;;3.09;100.00
59367;BME280;45163;47.690;11.770;2023-02-23T02:50:14;92900.09;;;3.06;100.00
59367;BME280;45163;47.690;11.770;2023-02-23T02:52:49;92900.47;;;3.05;100.00
59367;BME280;45163;47.690;11.770;2023-02-23T02:55:25;92902.81;;;3.03;100.00
59367;BME280;45163;47.690;11.770;2023-02-23T02:57:57;92898.22;;;2.96;100.00
59367;BME280;45163;47.690;11.770;2023-02-23T03:00:35;92902.88;;;2.92;100.00
59367;BME280;45163;47.690;11.770;2023-02-23T03:03:38;92898.28;;;2.89;100.00
59367;BME280;45163;47.690;11.770;2023-02-23T03:06:33;92895.94;;;2.94;100.00
59367;BME280;45163;47.690;11.770;2023-02-23T03:09:36;92894.75;;;2.95;100.00
59367;BME280;45163;47.690;11.770;2023-02-23T03:19:03;92902.03;;;3.02;100.00
59367;BME280;45163;47.690;11.770;2023-02-23T03:22:00;92898.97;;;3.00;100.00
59367;BME280;45163;47.690;11.770;2023-02-23T03:24:53;92895.94;;;2.94;100.00
59367;BME280;45163;47.690;11.770;2023-02-23T03:27:45;92904.41;;;2.93;100.00
59367;BME280;45163;47.690;11.770;2023-02-23T03:30:43;92907.50;;;2.91;100.00
59367;BME280;45163;47.690;11.770;2023-02-23T03:33:40;92896.38;;;2.86;100.00
59367;BME280;45163;47.690;11.770;2023-02-23T03:36:31;92910.28;;;2.77;100.00
59367;BME280;45163;47.690;11.770;2023-02-23T03:42:11;92905.31;;;2.72;100.00
59367;BME280;45163;47.690;11.770;2023-02-23T03:45:03;92901.88;;;2.68;100.00
59367;BME280;45163;47.690;11.770;2023-02-23T03:47:49;92902.25;;;2.66;100.00
59367;BME280;45163;47.690;11.770;2023-02-23T03:50:42;92909.97;;;2.64;100.00
59367;BME280;45163;47.690;11.770;2023-02-23T03:53:39;92908.84;;;2.62;100.00
59367;BME280;45163;47.690;11.770;2023-02-23T03:56:25;92912.69;;;2.64;100.00
59367;BME280;45163;47.690;11.770;2023-02-23T03:59:12;92912.59;;;2.75;100.00
59367;BME280;45163;47.690;11.770;2023-02-23T04:02:02;92911.34;;;2.90;100.00
59367;BME280;45163;47.690;11.770;2023-02-23T04:04:48;92920.50;;;3.04;100.00
59367;BME280;45163;47.690;11.770;2023-02-23T04:07:33;92916.56;;;3.15;100.00
59367;BME280;45163;47.690;11.770;2023-02-23T04:10:21;92921.22;;;3.15;100.00
59367;BME280;45163;47.690;11.770;2023-02-23T04:13:13;92916.56;;;3.15;100.00
59367;BME280;45163;47.690;11.770;2023-02-23T04:15:51;92927.72;;;3.17;100.00
59367;BME280;45163;47.690;11.770;2023-02-23T04:18:24;92920.00;;;3.19;100.00
59367;BME280;45163;47.690;11.770;2023-02-23T04:20:50;92920.78;;;3.20;100.00
59367;BME280;45163;47.690;11.770;2023-02-23T04:23:16;92921.94;;;3.22;100.00
59367;BME280;45163;47.690;11.770;2023-02-23T04:25:43;92921.50;;;3.28;100.00
59367;BME280;45163;47.690;11.770;2023-02-23T04:28:09;92927.25;;;3.30;100.00
59367;BME280;45163;47.690;11.770;2023-02-23T04:30:35;92927.25;;;3.30;100.00
59367;BME280;45163;47.690;11.770;2023-02-23T04:33:01;92921.09;;;3.29;100.00
59367;BME280;45163;47.690;11.770;2023-02-23T04:35:27;92923.78;;;3.29;100.00
59367;BME280;45163;47.690;11.770;2023-02-23T04:37:56;92926.13;;;3.27;100.00
59367;BME280;45163;47.690;11.770;2023-02-23T04:40:22;92925.34;;;3.27;100.00
59367;BME280;45163;47.690;11.770;2023-02-23T04:42:48;92929.19;;;3.29;100.00
59367;BME280;45163;47.690;11.770;2023-02-23T04:45:15;92928.00;;;3.30;100.00
59367;BME280;45163;47.690;11.770;2023-02-23T04:47:41;92933.81;;;3.29;100.00
59367;BME280;45163;47.690;11.770;2023-02-23T04:50:07;92930.31;;;3.32;100.00
59367;BME280;45163;47.690;11.770;2023-02-23T04:52:33;92927.22;;;3.33;100.00
59367;BME280;45163;47.690;11.770;2023-02-23T04:55:00;92923.34;;;3.34;100.00
59367;BME280;45163;47.690;11.770;2023-02-23T04:57:26;92922.56;;;3.37;100.00
59367;BME280;45163;47.690;11.770;2023-02-23T04:59:53;92934.88;;;3.38;100.00
59367;BME280;45163;47.690;11.770;2023-02-23T05:02:19;92921.00;;;3.40;100.00
59367;BME280;45163;47.690;11.770;2023-02-23T05:04:45;92935.25;;;3.40;100.00
59367;BME280;45163;47.690;11.770;2023-02-23T05:07:11;92929.91;;;3.37;100.00
59367;BME280;45163;47.690;11.770;2023-02-23T05:09:37;92926.75;;;3.42;100.00
59367;BME280;45163;47.690;11.770;2023-02-23T05:12:03;92928.31;;;3.43;100.00
59367;BME280;45163;47.690;11.770;2023-02-23T05:14:29;92925.56;;;3.46;100.00
59367;BME280;45163;47.690;11.770;2023-02-23T05:16:56;92922.47;;;3.52;100.00
59367;BME280;45163;47.690;11.770;2023-02-23T05:19:22;92922.47;;;3.52;100.00
59367;BME280;45163;47.690;11.770;2023-02-23T05:21:48;92918.94;;;3.55;100.00
59367;BME280;45163;47.690;11.770;2023-02-23T05:24:16;92919.72;;;3.55;100.00
59367;BME280;45163;47.690;11.770;2023-02-23T05:26:43;92914.72;;;3.54;100.00
59367;BME280;45163;47.690;11.770;2023-02-23T05:29:10;92919.75;;;3.52;100.00
59367;BME280;45163;47.690;11.770;2023-02-23T05:31:36;92917.41;;;3.54;100.00
59367;BME280;45163;47.690;11.770;2023-02-23T05:34:02;92923.56;;;3.58;100.00
59367;BME280;45163;47.690;11.770;2023-02-23T05:36:28;92916.59;;;3.60;100.00
59367;BME280;45163;47.690;11.770;2023-02-23T05:38:54;92923.94;;;3.60;100.00
59367;BME280;45163;47.690;11.770;2023-02-23T05:41:22;92916.97;;;3.59;100.00
59367;BME280;45163;47.690;11.770;2023-02-23T05:43:49;92926.22;;;3.61;100.00
59367;BME280;45163;47.690;11.770;2023-02-23T05:46:20;92916.94;;;3.62;100.00
59367;BME280;45163;47.690;11.770;2023-02-23T05:48:47;92916.56;;;3.64;100.00
59367;BME280;45163;47.690;11.770;2023-02-23T05:51:14;92920.81;;;3.61;100.00
59367;BME280;45163;47.690;11.770;2023-02-23T05:53:41;92923.53;;;3.61;100.00
59367;BME280;45163;47.690;11.770;2023-02-23T05:56:11;92928.53;;;3.59;100.00
59367;BME280;45163;47.690;11.770;2023-02-23T05:58:38;92923.53;;;3.61;100.00
59367;BME280;45163;47.690;11.770;2023-02-23T06:01:04;92929.66;;;3.65;100.00
59367;BME280;45163;47.690;11.770;2023-02-23T06:03:30;92924.59;;;3.67;100.00
59367;BME280;45163;47.690;11.770;2023-02-23T06:05:57;92928.81;;;3.72;100.00
59367;BME280;45163;47.690;11.770;2023-02-23T06:08:24;92928.00;;;3.75;100.00
59367;BME280;45163;47.690;11.770;2023-02-23T06:10:51;92935.72;;;3.77;100.00
59367;BME280;45163;47.690;11.770;2023-02-23T06:13:17;92931.91;;;3.70;100.00
59367;BME280;45163;47.690;11.770;2023-02-23T06:15:43;92931.13;;;3.73;100.00
59367;BME280;45163;47.690;11.770;2023-02-23T06:18:09;92932.25;;;3.76;100.00
59367;BME280;45163;47.690;11.770;2023-02-23T06:20:36;92936.50;;;3.77;100.00
59367;BME280;45163;47.690;11.770;2023-02-23T06:23:03;92938.75;;;3.82;100.00
59367;BME280;45163;47.690;11.770;2023-02-23T06:25:30;92938.38;;;3.80;100.00
59367;BME280;45163;47.690;11.770;2023-02-23T06:27:56;92938.38;;;3.80;100.00
59367;BME280;45163;47.690;11.770;2023-02-23T06:30:22;92937.22;;;3.81;100.00
59367;BME280;45163;47.690;11.770;2023-02-23T06:32:48;92945.66;;;3.87;100.00
59367;BME280;45163;47.690;11.770;2023-02-23T06:35:14;92952.19;;;3.89;100.00
59367;BME280;45163;47.690;11.770;2023-02-23T06:37:40;92949.84;;;3.91;100.00
59367;BME280;45163;47.690;11.770;2023-02-23T06:40:07;92943.63;;;3.98;100.00
59367;BME280;45163;47.690;11.770;2023-02-23T06:42:33;92956.66;;;4.07;100.00
59367;BME280;45163;47.690;11.770;2023-02-23T06:45:01;92956.59;;;4.10;100.00
59367;BME280;45163;47.690;11.770;2023-02-23T06:47:27;92959.97;;;4.18;100.00
59367;BME280;45163;47.690;11.770;2023-02-23T06:49:53;92954.53;;;4.21;100.00
59367;BME280;45163;47.690;11.770;2023-02-23T06:52:19;92953.75;;;4.24;100.00
59367;BME280;45163;47.690;11.770;2023-02-23T06:54:45;92956.41;;;4.28;100.00
59367;BME280;45163;47.690;11.770;2023-02-23T06:57:12;92958.66;;;4.33;100.00
59367;BME280;45163;47.690;11.770;2023-02-23T06:59:38;92952.16;;;4.31;100.00
59367;BME280;45163;47.690;11.770;2023-02-23T07:02:04;92960.56;;;4.36;100.00
59367;BME280;45163;47.690;11.770;2023-02-23T07:04:31;92959.34;;;4.41;100.00
59367;BME280;45163;47.690;11.770;2023-02-23T07:06:57;92967.00;;;4.46;100.00
59367;BME280;45163;47.690;11.770;2023-02-23T07:09:23;92963.84;;;4.51;100.00
59367;BME280;45163;47.690;11.770;2023-02-23T07:11:49;92965.38;;;4.56;100.00
59367;BME280;45163;47.690;11.770;2023-02-23T07:14:16;92963.78;;;4.58;100.00
59367;BME280;45163;47.690;11.770;2023-02-23T07:16:42;92966.78;;;4.64;100.00
59367;BME280;45163;47.690;11.770;2023-02-23T07:19:08;92960.19;;;4.68;100.00
59367;BME280;45163;47.690;11.770;2023-02-23T07:21:34;92965.59;;;4.68;100.00
59367;BME280;45163;47.690;11.770;2023-02-23T07:24:00;92970.19;;;4.71;100.00
59367;BME280;45163;47.690;11.770;2023-02-23T07:26:28;92979.78;;;4.76;100.00
59367;BME280;45163;47.690;11.770;2023-02-23T07:28:53;92969.78;;;4.73;100.00
59367;BME280;45163;47.690;11.770;2023-02-23T07:31:19;92972.03;;;4.78;100.00
59367;BME280;45163;47.690;11.770;2023-02-23T07:33:45;92966.97;;;4.80;100.00
59367;BME280;45163;47.690;11.770;2023-02-23T07:36:12;92964.97;;;4.88;100.00
59367;BME280;45163;47.690;11.770;2023-02-23T07:38:38;92966.84;;;4.91;100.00
59367;BME280;45163;47.690;11.770;2023-02-23T07:41:04;92965.22;;;4.97;100.00
59367;BME280;45163;47.690;11.770;2023-02-23T07:43:30;92962.09;;;5.02;100.00
59367;BME280;45163;47.690;11.770;2023-02-23T07:46:00;92968.50;;;5.12;100.00
59367;BME280;45163;47.690;11.770;2023-02-23T07:48:27;92969.13;;;5.23;100.00
59367;BME280;45163;47.690;11.770;2023-02-23T07:50:53;92970.94;;;5.30;100.00
59367;BME280;45163;47.690;11.770;2023-02-23T07:53:19;92972.09;;;5.32;100.00
59367;BME280;45163;47.690;11.770;2023-02-23T07:55:45;92975.84;;;5.38;100.00
59367;BME280;45163;47.690;11.770;2023-02-23T07:58:11;92976.63;;;5.39;100.00
59367;BME280;45163;47.690;11.770;2023-02-23T08:00:40;92971.47;;;5.48;100.00
59367;BME280;45163;47.690;11.770;2023-02-23T08:03:06;92981.06;;;5.53;100.00
59367;BME280;45163;47.690;11.770;2023-02-23T08:05:32;92970.34;;;5.45;100.00
59367;BME280;45163;47.690;11.770;2023-02-23T08:07:58;92969.81;;;5.54;100.00
59367;BME280;45163;47.690;11.770;2023-02-23T08:10:25;92971.66;;;5.61;100.00
59367;BME280;45163;47.690;11.770;2023-02-23T08:12:51;92973.91;;;5.66;100.00
59367;BME280;45163;47.690;11.770;2023-02-23T08:15:17;92977.25;;;5.73;100.00
59367;BME280;45163;47.690;11.770;2023-02-23T08:17:43;92975.31;;;5.74;100.00
59367;BME280;45163;47.690;11.770;2023-02-23T08:20:09;92972.13;;;5.79;100.00
59367;BME280;45163;47.690;11.770;2023-02-23T08:22:36;92974.63;;;5.93;100.00
59367;BME280;45163;47.690;11.770;2023-02-23T08:25:02;92967.91;;;6.02;100.00
59367;BME280;45163;47.690;11.770;2023-02-23T08:27:34;92972.38;;;6.12;100.00
59367;BME280;45163;47.690;11.770;2023-02-23T08:30:02;92972.59;;;6.21;100.00
59367;BME280;45163;47.690;11.770;2023-02-23T08:32:34;92966.63;;;6.30;100.00
59367;BME280;45163;47.690;11.770;2023-02-23T08:35:00;92977.97;;;6.24;100.00
59367;BME280;45163;47.690;11.770;2023-02-23T08:37:30;92975.13;;;6.32;100.00
59367;BME280;45163;47.690;11.770;2023-02-23T08:39:56;92967.41;;;6.30;100.00
59367;BME280;45163;47.690;11.770;2023-02-23T08:42:22;92974.44;;;6.28;100.00
59367;BME280;45163;47.690;11.770;2023-02-23T08:44:48;92976.88;;;6.42;100.00
59367;BME280;45163;47.690;11.770;2023-02-23T08:47:15;92969.59;;;6.59;100.00
59367;BME280;45163;47.690;11.770;2023-02-23T08:49:51;92975.22;;;6.68;100.00
59367;BME280;45163;47.690;11.770;2023-02-23T08:52:19;92966.63;;;6.89;100.00
59367;BME280;45163;47.690;11.770;2023-02-23T08:54:45;92966.16;;;6.94;100.00
59367;BME280;45163;47.690;11.770;2023-02-23T08:57:11;92972.13;;;7.06;100.00
59367;BME280;45163;47.690;11.770;2023-02-23T08:59:37;92969.94;;;7.17;100.00
59367;BME280;45163;47.690;11.770;2023-02-23T09:02:04;92972.63;;;7.37;100.00
59367;BME280;45163;47.690;11.770;2023-02-23T09:04:33;92974.00;;;7.45;100.00
59367;BME280;45163;47.690;11.770;2023-02-23T09:07:03;92964.28;;;7.44;100.00
59367;BME280;45163;47.690;11.770;2023-02-23T09:09:29;92965.34;;;7.50;100.00
59367;BME280;45163;47.690;11.770;2023-02-23T09:11:55;92962.88;;;7.72;100.00
59367;BME280;45163;47.690;11.770;2023-02-23T09:14:21;92966.44;;;7.85;100.00
59367;BME280;45163;47.690;11.770;2023-02-23T09:16:47;92963.63;;;7.89;100.00
59367;BME280;45163;47.690;11.770;2023-02-23T09:19:13;92963.56;;;7.92;100.00
59367;BME280;45163;47.690;11.770;2023-02-23T09:21:39;92962.69;;;8.12;100.00
59367;BME280;45163;47.690;11.770;2023-02-23T09:24:05;92966.41;;;8.18;100.00
59367;BME280;45163;47.690;11.770;2023-02-23T09:26:32;92961.38;;;8.33;100.00
59367;BME280;45163;47.690;11.770;2023-02-23T09:29:00;92954.41;;;8.32;100.00
59367;BME280;45163;47.690;11.770;2023-02-23T09:31:26;92963.16;;;8.39;100.00
59367;BME280;45163;47.690;11.770;2023-02-23T09:33:53;92954.31;;;8.52;100.00
59367;BME280;45163;47.690;11.770;2023-02-23T09:36:22;92960.66;;;8.61;100.00
59367;BME280;45163;47.690;11.770;2023-02-23T09:38:51;92966.19;;;8.87;100.00
59367;BME280;45163;47.690;11.770;2023-02-23T09:49:36;92961.56;;;9.26;100.00
59367;BME280;45163;47.690;11.770;2023-02-23T09:52:10;92969.84;;;9.47;100.00
59367;BME280;45163;47.690;11.770;2023-02-23T09:54:40;92961.56;;;9.64;100.00
59367;BME280;45163;47.690;11.770;2023-02-23T09:57:12;92966.91;;;9.80;100.00
59367;BME280;45163;47.690;11.770;2023-02-23T09:59:39;92960.03;;;9.76;100.00
59367;BME280;45163;47.690;11.770;2023-02-23T10:02:27;92957.84;;;9.96;100.00
59367;BME280;45163;47.690;11.770;2023-02-23T10:05:03;92955.28;;;10.27;100.00
59367;BME280;45163;47.690;11.770;2023-02-23T10:07:53;92958.41;;;10.38;100.00
59367;BME280;45163;47.690;11.770;2023-02-23T10:19:03;92948.72;;;11.25;100.00
59367;BME280;45163;47.690;11.770;2023-02-23T10:21:39;92946.84;;;11.13;100.00
59367;BME280;45163;47.690;11.770;2023-02-23T10:24:49;92944.69;;;11.39;100.00
59367;BME280;45163;47.690;11.770;2023-02-23T10:27:20;92942.25;;;11.41;100.00
59367;BME280;45163;47.690;11.770;2023-02-23T10:29:51;92945.81;;;11.51;100.00
59367;BME280;45163;47.690;11.770;2023-02-23T10:32:23;92944.03;;;11.66;100.00
59367;BME280;45163;47.690;11.770;2023-02-23T10:34:53;92946.28;;;11.58;100.00
59367;BME280;45163;47.690;11.770;2023-02-23T10:37:22;92943.34;;;11.43;100.00
59367;BME280;45163;47.690;11.770;2023-02-23T10:39:49;92949.47;;;11.57;100.00
59367;BME280;45163;47.690;11.770;2023-02-23T10:42:21;92936.53;;;11.48;100.00
59367;BME280;45163;47.690;11.770;2023-02-23T10:44:48;92935.97;;;11.00;100.00
59367;BME280;45163;47.690;11.770;2023-02-23T10:47:18;92933.34;;;11.18;100.00
59367;BME280;45163;47.690;11.770;2023-02-23T10:49:52;92936.44;;;11.30;100.00
59367;BME280;45163;47.690;11.770;2023-02-23T10:52:21;92934.25;;;10.93;100.00
59367;BME280;45163;47.690;11.770;2023-02-23T10:54:50;92932.00;;;11.23;100.00
59367;BME280;45163;47.690;11.770;2023-02-23T10:57:24;92934.81;;;11.10;100.00
59367;BME280;45163;47.690;11.770;2023-02-23T11:02:52;92926.41;;;11.27;100.00
59367;BME280;45163;47.690;11.770;2023-02-23T11:05:48;92921.97;;;11.51;100.00
59367;BME280;45163;47.690;11.770;2023-02-23T11:08:19;92919.41;;;11.57;100.00
59367;BME280;45163;47.690;11.770;2023-02-23T11:11:16;92919.31;;;11.79;100.00
59367;BME280;45163;47.690;11.770;2023-02-23T11:13:47;92914.69;;;11.98;100.00
59367;BME280;45163;47.690;11.770;2023-02-23T11:18:52;92904.22;;;12.33;100.00
59367;BME280;45163;47.690;11.770;2023-02-23T11:24:00;92906.31;;;13.11;100.00
59367;BME280;45163;47.690;11.770;2023-02-23T11:26:34;92908.91;;;13.06;100.00
59367;BME280;45163;47.690;11.770;2023-02-23T11:31:59;92897.19;;;13.05;100.00
59367;BME280;45163;47.690;11.770;2023-02-23T11:34:30;92898.72;;;12.97;100.00
59367;BME280;45163;47.690;11.770;2023-02-23T11:37:06;92898.56;;;13.10;100.00
59367;BME280;45163;47.690;11.770;2023-02-23T11:39:33;92890.03;;;13.08;100.00
59367;BME280;45163;47.690;11.770;2023-02-23T11:42:20;92886.25;;;12.87;100.00
59367;BME280;45163;47.690;11.770;2023-02-23T11:45:06;92886.00;;;12.76;100.00
59367;BME280;45163;47.690;11.770;2023-02-23T11:47:37;92879.75;;;12.75;100.00
59367;BME280;45163;47.690;11.770;2023-02-23T11:50:05;92881.59;;;12.60;100.00
59367;BME280;45163;47.690;11.770;2023-02-23T11:52:33;92877.50;;;12.55;100.00
59367;BME280;45163;47.690;11.770;2023-02-23T11:55:05;92878.38;;;12.80;100.00
59367;BME280;45163;47.690;11.770;2023-02-23T11:57:34;92877.63;;;12.70;100.00
59367;BME280;45163;47.690;11.770;2023-02-23T12:00:19;92878.97;;;12.75;100.00
59367;BME280;45163;47.690;11.770;2023-02-23T12:02:59;92875.06;;;12.39;100.00
59367;BME280;45163;47.690;11.770;2023-02-23T12:05:28;92883.72;;;12.10;100.00
59367;BME280;45163;47.690;11.770;2023-02-23T12:08:03;92879.28;;;12.03;100.00
59367;BME280;45163;47.690;11.770;2023-02-23T12:10:38;92881.19;;;11.75;100.00
59367;BME280;45163;47.690;11.770;2023-02-23T12:13:23;92882.28;;;11.37;100.00
59367;BME280;45163;47.690;11.770;2023-02-23T12:15:55;92873.72;;;11.17;100.00
59367;BME280;45163;47.690;11.770;2023-02-23T12:21:33;92874.69;;;11.01;100.00
59367;BME280;45163;47.690;11.770;2023-02-23T12:26:52;92871.28;;;11.19;100.00
59367;BME280;45163;47.690;11.770;2023-02-23T12:29:48;92867.81;;;11.28;100.00
59367;BME280;45163;47.690;11.770;2023-02-23T12:35:29;92855.41;;;11.36;100.00
59367;BME280;45163;47.690;11.770;2023-02-23T12:41:02;92853.66;;;11.69;100.00
59367;BME280;45163;47.690;11.770;2023-02-23T12:44:01;92855.22;;;11.70;100.00
59367;BME280;45163;47.690;11.770;2023-02-23T12:46:34;92853.28;;;11.89;100.00
59367;BME280;45163;47.690;11.770;2023-02-23T12:49:24;92855.34;;;11.67;100.00
59367;BME280;45163;47.690;11.770;2023-02-23T12:52:00;92852.03;;;11.72;100.00
59367;BME280;45163;47.690;11.770;2023-02-23T12:54:27;92852.44;;;11.61;100.00
59367;BME280;45163;47.690;11.770;2023-02-23T12:56:58;92855.00;;;11.56;100.00
59367;BME280;45163;47.690;11.770;2023-02-23T13:02:37;92853.16;;;11.43;100.00
59367;BME280;45163;47.690;11.770;2023-02-23T13:16:24;92851.53;;;11.15;100.00
59367;BME280;45163;47.690;11.770;2023-02-23T13:21:42;92845.44;;;11.11;100.00
59367;BME280;45163;47.690;11.770;2023-02-23T13:24:24;92850.63;;;11.18;100.00
59367;BME280;45163;47.690;11.770;2023-02-23T13:32:03;92863.13;;;10.66;100.00
59367;BME280;45163;47.690;11.770;2023-02-23T13:34:35;92856.41;;;10.58;100.00
59367;BME280;45163;47.690;11.770;2023-02-23T13:37:06;92853.16;;;10.50;100.00
59367;BME280;45163;47.690;11.770;2023-02-23T13:42:38;92847.38;;;10.48;100.00
59367;BME280;45163;47.690;11.770;2023-02-23T13:47:51;92855.19;;;10.37;100.00
59367;BME280;45163;47.690;11.770;2023-02-23T13:50:33;92851.97;;;10.29;100.00
59367;BME280;45163;47.690;11.770;2023-02-23T13:53:06;92852.09;;;10.26;100.00
59367;BME280;45163;47.690;11.770;2023-02-23T13:55:44;92848.97;;;10.36;100.00
59367;BME280;45163;47.690;11.770;2023-02-23T13:58:15;92851.84;;;10.33;100.00
59367;BME280;45163;47.690;11.770;2023-02-23T14:00:42;92856.16;;;10.43;100.00
59367;BME280;45163;47.690;11.770;2023-02-23T14:03:26;92849.28;;;10.38;100.00
59367;BME280;45163;47.690;11.770;2023-02-23T14:05:56;92853.59;;;10.48;100.00
59367;BME280;45163;47.690;11.770;2023-02-23T14:08:33;92849.28;;;10.38;100.00
59367;BME280;45163;47.690;11.770;2023-02-23T14:11:01;92850.06;;;10.39;100.00
59367;BME280;45163;47.690;11.770;2023-02-23T14:13:39;92854.06;;;10.25;100.00
59367;BME280;45163;47.690;11.770;2023-02-23T14:19:04;92848.16;;;10.14;100.00
59367;BME280;45163;47.690;11.770;2023-02-23T14:24:19;92847.13;;;10.33;100.00
59367;BME280;45163;47.690;11.770;2023-02-23T14:27:04;92854.75;;;10.38;100.00
59367;BME280;45163;47.690;11.770;2023-02-23T14:29:44;92846.31;;;10.45;100.00
59367;BME280;45163;47.690;11.770;2023-02-23T14:32:30;92849.88;;;10.33;100.00
59367;BME280;45163;47.690;11.770;2023-02-23T14:34:59;92847.56;;;10.32;100.00
59367;BME280;45163;47.690;11.770;2023-02-23T14:37:26;92850.88;;;10.27;100.00
59367;BME280;45163;47.690;11.770;2023-02-23T14:40:02;92848.78;;;10.31;100.00
59367;BME280;45163;47.690;11.770;2023-02-23T14:42:29;92847.31;;;10.39;100.00
59367;BME280;45163;47.690;11.770;2023-02-23T14:44:57;92853.22;;;10.37;100.00
59367;BME280;45163;47.690;11.770;2023-02-23T14:47:27;92852.38;;;10.28;100.00
59367;BME280;45163;47.690;11.770;2023-02-23T14:49:56;92847.06;;;10.11;100.00
59367;BME280;45163;47.690;11.770;2023-02-23T14:52:27;92851.22;;;10.16;100.00
59367;BME280;45163;47.690;11.770;2023-02-23T14:57:42;92853.84;;;10.07;100.00
59367;BME280;45163;47.690;11.770;2023-02-23T15:02:59;92847.78;;;10.03;100.00
59367;BME280;45163;47.690;11.770;2023-02-23T15:05:32;92850.38;;;10.06;100.00